sensor_id;sensor_type;location;lat;lon;timestamp;P1;durP1;ratioP1;P2;durP2;ratioP2
26478;SDS011;14163;-26.142;27.992;2022-12-16T00:01:26;21.67;;;19.47;;
26478;SDS011;14163;-26.142;27.992;2022-12-16T00:03:56;20.47;;;18.67;;
26478;SDS011;14163;-26.142;27.992;2022-12-16T00:06:26;20.80;;;19.00;;
26478;SDS011;14163;-26.142;27.992;2022-12-16T00:09:00;19.83;;;18.03;;
26478;SDS011;14163;-26.142;27.992;2022-12-16T00:11:29;21.67;;;19.57;;
26478;SDS011;14163;-26.142;27.992;2022-12-16T00:13:58;21.50;;;19.23;;
26478;SDS011;14163;-26.142;27.992;2022-12-16T00:16:27;21.63;;;19.40;;
26478;SDS011;14163;-26.142;27.992;2022-12-16T00:18:56;21.40;;;19.40;;
26478;SDS011;14163;-26.142;27.992;2022-12-16T00:21:25;21.87;;;19.93;;
26478;SDS011;14163;-26.142;27.992;2022-12-16T00:23:54;20.93;;;19.07;;
26478;SDS011;14163;-26.142;27.992;2022-12-16T00:26:26;20.63;;;18.60;;
26478;SDS011;14163;-26.142;27.992;2022-12-16T00:28:56;20.60;;;18.60;;
26478;SDS011;14163;-26.142;27.992;2022-12-16T00:31:25;20.73;;;18.93;;
26478;SDS011;14163;-26.142;27.992;2022-12-16T00:33:55;21.87;;;19.77;;
26478;SDS011;14163;-26.142;27.992;2022-12-16T00:36:24;19.17;;;17.47;;
26478;SDS011;14163;-26.142;27.992;2022-12-16T00:38:53;21.00;;;18.93;;
26478;SDS011;14163;-26.142;27.992;2022-12-16T00:41:22;21.20;;;19.20;;
26478;SDS011;14163;-26.142;27.992;2022-12-16T00:43:53;24.17;;;22.00;;
26478;SDS011;14163;-26.142;27.992;2022-12-16T00:46:22;22.97;;;20.83;;
26478;SDS011;14163;-26.142;27.992;2022-12-16T00:48:51;22.67;;;20.57;;
26478;SDS011;14163;-26.142;27.992;2022-12-16T00:51:20;21.03;;;19.10;;
26478;SDS011;14163;-26.142;27.992;2022-12-16T00:53:49;22.27;;;20.37;;
26478;SDS011;14163;-26.142;27.992;2022-12-16T00:56:19;21.93;;;19.73;;
26478;SDS011;14163;-26.142;27.992;2022-12-16T00:58:48;22.63;;;20.63;;
26478;SDS011;14163;-26.142;27.992;2022-12-16T01:01:18;24.77;;;22.53;;
26478;SDS011;14163;-26.142;27.992;2022-12-16T01:03:47;26.10;;;23.67;;
26478;SDS011;14163;-26.142;27.992;2022-12-16T01:06:17;26.83;;;24.23;;
26478;SDS011;14163;-26.142;27.992;2022-12-16T01:08:46;24.20;;;21.80;;
26478;SDS011;14163;-26.142;27.992;2022-12-16T01:11:15;25.10;;;22.70;;
26478;SDS011;14163;-26.142;27.992;2022-12-16T01:13:45;27.20;;;24.60;;
26478;SDS011;14163;-26.142;27.992;2022-12-16T01:16:19;25.23;;;22.80;;
26478;SDS011;14163;-26.142;27.992;2022-12-16T01:18:48;28.27;;;25.47;;
26478;SDS011;14163;-26.142;27.992;2022-12-16T01:21:18;26.73;;;24.03;;
26478;SDS011;14163;-26.142;27.992;2022-12-16T01:23:47;26.13;;;23.67;;
26478;SDS011;14163;-26.142;27.992;2022-12-16T01:26:16;29.13;;;26.50;;
26478;SDS011;14163;-26.142;27.992;2022-12-16T01:28:46;28.17;;;25.27;;
26478;SDS011;14163;-26.142;27.992;2022-12-16T01:31:16;28.17;;;25.60;;
26478;SDS011;14163;-26.142;27.992;2022-12-16T01:33:47;32.80;;;29.40;;
26478;SDS011;14163;-26.142;27.992;2022-12-16T01:36:17;30.30;;;27.20;;
26478;SDS011;14163;-26.142;27.992;2022-12-16T01:38:46;32.23;;;28.83;;
26478;SDS011;14163;-26.142;27.992;2022-12-16T01:41:15;33.77;;;29.23;;
26478;SDS011;14163;-26.142;27.992;2022-12-16T01:43:45;34.37;;;31.00;;
26478;SDS011;14163;-26.142;27.992;2022-12-16T01:46:15;32.73;;;29.47;;
26478;SDS011;14163;-26.142;27.992;2022-12-16T01:48:50;30.00;;;27.10;;
26478;SDS011;14163;-26.142;27.992;2022-12-16T01:51:23;31.57;;;28.50;;
26478;SDS011;14163;-26.142;27.992;2022-12-16T01:53:57;29.43;;;25.87;;
26478;SDS011;14163;-26.142;27.992;2022-12-16T01:56:31;29.57;;;26.47;;
26478;SDS011;14163;-26.142;27.992;2022-12-16T01:59:02;29.03;;;26.00;;
26478;SDS011;14163;-26.142;27.992;2022-12-16T04:08:47;12.50;;;11.30;;
26478;SDS011;14163;-26.142;27.992;2022-12-16T04:11:16;13.00;;;11.70;;
26478;SDS011;14163;-26.142;27.992;2022-12-16T04:14:02;13.10;;;11.60;;
26478;SDS011;14163;-26.142;27.992;2022-12-16T04:16:47;13.30;;;12.10;;
26478;SDS011;14163;-26.142;27.992;2022-12-16T04:19:33;12.87;;;11.73;;
26478;SDS011;14163;-26.142;27.992;2022-12-16T04:22:21;13.07;;;11.90;;
26478;SDS011;14163;-26.142;27.992;2022-12-16T04:25:11;14.37;;;12.73;;
26478;SDS011;14163;-26.142;27.992;2022-12-16T04:27:43;12.40;;;11.20;;
26478;SDS011;14163;-26.142;27.992;2022-12-16T04:30:13;12.30;;;11.17;;
26478;SDS011;14163;-26.142;27.992;2022-12-16T04:32:46;13.30;;;12.00;;
26478;SDS011;14163;-26.142;27.992;2022-12-16T04:35:35;12.73;;;11.50;;
26478;SDS011;14163;-26.142;27.992;2022-12-16T04:38:20;12.93;;;11.70;;
26478;SDS011;14163;-26.142;27.992;2022-12-16T04:41:07;13.90;;;12.50;;
26478;SDS011;14163;-26.142;27.992;2022-12-16T04:43:53;13.57;;;12.27;;
26478;SDS011;14163;-26.142;27.992;2022-12-16T04:46:39;14.10;;;12.50;;
26478;SDS011;14163;-26.142;27.992;2022-12-16T04:49:24;12.70;;;11.50;;
26478;SDS011;14163;-26.142;27.992;2022-12-16T04:52:09;11.90;;;10.90;;
26478;SDS011;14163;-26.142;27.992;2022-12-16T04:54:55;11.83;;;10.70;;
26478;SDS011;14163;-26.142;27.992;2022-12-16T04:57:45;12.40;;;11.20;;
26478;SDS011;14163;-26.142;27.992;2022-12-16T05:00:32;11.13;;;10.13;;
26478;SDS011;14163;-26.142;27.992;2022-12-16T05:03:18;10.83;;;9.90;;
26478;SDS011;14163;-26.142;27.992;2022-12-16T05:06:03;10.70;;;9.70;;
26478;SDS011;14163;-26.142;27.992;2022-12-16T05:08:49;12.07;;;9.70;;
26478;SDS011;14163;-26.142;27.992;2022-12-16T05:11:35;12.40;;;11.20;;
26478;SDS011;14163;-26.142;27.992;2022-12-16T05:14:22;10.60;;;9.70;;
26478;SDS011;14163;-26.142;27.992;2022-12-16T05:17:08;10.80;;;9.70;;
26478;SDS011;14163;-26.142;27.992;2022-12-16T05:19:53;10.40;;;9.47;;
26478;SDS011;14163;-26.142;27.992;2022-12-16T05:22:39;10.13;;;9.13;;
26478;SDS011;14163;-26.142;27.992;2022-12-16T05:25:36;10.40;;;9.40;;
26478;SDS011;14163;-26.142;27.992;2022-12-16T05:28:22;10.13;;;9.00;;
26478;SDS011;14163;-26.142;27.992;2022-12-16T05:31:09;9.40;;;8.50;;
26478;SDS011;14163;-26.142;27.992;2022-12-16T05:33:55;9.63;;;8.73;;
26478;SDS011;14163;-26.142;27.992;2022-12-16T05:36:40;9.80;;;8.90;;
26478;SDS011;14163;-26.142;27.992;2022-12-16T05:39:25;8.10;;;7.40;;
26478;SDS011;14163;-26.142;27.992;2022-12-16T05:42:11;8.03;;;7.00;;
26478;SDS011;14163;-26.142;27.992;2022-12-16T05:44:56;7.80;;;7.03;;
26478;SDS011;14163;-26.142;27.992;2022-12-16T05:47:46;7.50;;;6.90;;
26478;SDS011;14163;-26.142;27.992;2022-12-16T05:50:32;7.93;;;7.33;;
26478;SDS011;14163;-26.142;27.992;2022-12-16T05:53:17;7.57;;;7.00;;
26478;SDS011;14163;-26.142;27.992;2022-12-16T05:56:03;8.23;;;7.53;;
26478;SDS011;14163;-26.142;27.992;2022-12-16T05:58:49;8.63;;;7.83;;
26478;SDS011;14163;-26.142;27.992;2022-12-16T06:01:46;8.60;;;7.80;;
26478;SDS011;14163;-26.142;27.992;2022-12-16T06:04:34;7.90;;;7.30;;
26478;SDS011;14163;-26.142;27.992;2022-12-16T06:07:20;6.77;;;6.27;;
26478;SDS011;14163;-26.142;27.992;2022-12-16T06:10:05;6.13;;;5.63;;
26478;SDS011;14163;-26.142;27.992;2022-12-16T06:12:51;6.07;;;5.57;;
26478;SDS011;14163;-26.142;27.992;2022-12-16T06:15:36;6.10;;;5.57;;
26478;SDS011;14163;-26.142;27.992;2022-12-16T06:18:22;6.07;;;5.67;;
26478;SDS011;14163;-26.142;27.992;2022-12-16T06:21:09;6.17;;;5.67;;
26478;SDS011;14163;-26.142;27.992;2022-12-16T06:23:54;5.63;;;5.20;;
26478;SDS011;14163;-26.142;27.992;2022-12-16T06:26:40;5.87;;;5.47;;
26478;SDS011;14163;-26.142;27.992;2022-12-16T06:29:25;6.30;;;5.80;;
26478;SDS011;14163;-26.142;27.992;2022-12-16T06:32:11;6.13;;;5.63;;
26478;SDS011;14163;-26.142;27.992;2022-12-16T06:34:53;6.13;;;5.63;;
26478;SDS011;14163;-26.142;27.992;2022-12-16T06:37:40;5.77;;;5.27;;
26478;SDS011;14163;-26.142;27.992;2022-12-16T06:40:29;7.43;;;5.90;;
26478;SDS011;14163;-26.142;27.992;2022-12-16T06:43:15;5.30;;;4.80;;
26478;SDS011;14163;-26.142;27.992;2022-12-16T06:46:01;6.20;;;5.50;;
26478;SDS011;14163;-26.142;27.992;2022-12-16T06:48:46;6.93;;;6.23;;
26478;SDS011;14163;-26.142;27.992;2022-12-16T06:51:31;6.67;;;6.10;;
26478;SDS011;14163;-26.142;27.992;2022-12-16T06:54:19;7.53;;;6.37;;
26478;SDS011;14163;-26.142;27.992;2022-12-16T06:57:04;6.47;;;5.87;;
26478;SDS011;14163;-26.142;27.992;2022-12-16T06:59:50;7.03;;;6.43;;
26478;SDS011;14163;-26.142;27.992;2022-12-16T07:02:35;6.97;;;6.27;;
26478;SDS011;14163;-26.142;27.992;2022-12-16T07:05:21;7.70;;;7.00;;
26478;SDS011;14163;-26.142;27.992;2022-12-16T07:08:07;8.27;;;6.60;;
26478;SDS011;14163;-26.142;27.992;2022-12-16T07:10:54;6.30;;;5.70;;
26478;SDS011;14163;-26.142;27.992;2022-12-16T07:13:39;6.33;;;5.73;;
26478;SDS011;14163;-26.142;27.992;2022-12-16T07:16:25;8.50;;;7.23;;
26478;SDS011;14163;-26.142;27.992;2022-12-16T07:19:10;6.80;;;6.20;;
26478;SDS011;14163;-26.142;27.992;2022-12-16T07:21:56;7.33;;;6.30;;
26478;SDS011;14163;-26.142;27.992;2022-12-16T07:24:41;6.93;;;6.37;;
26478;SDS011;14163;-26.142;27.992;2022-12-16T07:27:28;6.80;;;6.07;;
26478;SDS011;14163;-26.142;27.992;2022-12-16T07:30:14;6.47;;;5.97;;
26478;SDS011;14163;-26.142;27.992;2022-12-16T07:33:00;6.67;;;6.17;;
26478;SDS011;14163;-26.142;27.992;2022-12-16T07:35:46;6.50;;;6.10;;
26478;SDS011;14163;-26.142;27.992;2022-12-16T07:38:31;7.30;;;6.70;;
26478;SDS011;14163;-26.142;27.992;2022-12-16T07:41:16;7.67;;;6.97;;
26478;SDS011;14163;-26.142;27.992;2022-12-16T07:44:04;7.80;;;7.00;;
26478;SDS011;14163;-26.142;27.992;2022-12-16T07:46:46;7.37;;;6.63;;
26478;SDS011;14163;-26.142;27.992;2022-12-16T07:49:32;8.40;;;7.67;;
26478;SDS011;14163;-26.142;27.992;2022-12-16T07:52:18;9.57;;;7.77;;
26478;SDS011;14163;-26.142;27.992;2022-12-16T07:55:03;7.50;;;6.90;;
26478;SDS011;14163;-26.142;27.992;2022-12-16T07:57:49;8.23;;;7.53;;
26478;SDS011;14163;-26.142;27.992;2022-12-16T08:00:39;11.10;;;8.83;;
26478;SDS011;14163;-26.142;27.992;2022-12-16T08:03:24;9.87;;;9.03;;
26478;SDS011;14163;-26.142;27.992;2022-12-16T08:06:10;10.33;;;9.30;;
26478;SDS011;14163;-26.142;27.992;2022-12-16T08:08:55;9.67;;;8.87;;
26478;SDS011;14163;-26.142;27.992;2022-12-16T08:11:56;10.10;;;9.10;;
26478;SDS011;14163;-26.142;27.992;2022-12-16T08:14:41;11.93;;;11.00;;
26478;SDS011;14163;-26.142;27.992;2022-12-16T08:17:29;11.57;;;10.57;;
26478;SDS011;14163;-26.142;27.992;2022-12-16T08:20:14;11.67;;;10.77;;
26478;SDS011;14163;-26.142;27.992;2022-12-16T08:23:05;11.73;;;10.63;;
26478;SDS011;14163;-26.142;27.992;2022-12-16T08:25:51;13.40;;;12.20;;
26478;SDS011;14163;-26.142;27.992;2022-12-16T08:28:37;13.83;;;12.63;;
26478;SDS011;14163;-26.142;27.992;2022-12-16T08:31:22;14.10;;;12.60;;
26478;SDS011;14163;-26.142;27.992;2022-12-16T08:34:06;14.27;;;12.97;;
26478;SDS011;14163;-26.142;27.992;2022-12-16T08:36:52;12.00;;;10.90;;
26478;SDS011;14163;-26.142;27.992;2022-12-16T08:39:38;11.90;;;10.90;;
26478;SDS011;14163;-26.142;27.992;2022-12-16T08:42:23;12.80;;;11.60;;
26478;SDS011;14163;-26.142;27.992;2022-12-16T08:45:09;11.90;;;10.83;;
26478;SDS011;14163;-26.142;27.992;2022-12-16T08:47:54;12.87;;;10.20;;
26478;SDS011;14163;-26.142;27.992;2022-12-16T08:50:41;12.87;;;11.77;;
26478;SDS011;14163;-26.142;27.992;2022-12-16T08:53:27;10.20;;;9.40;;
26478;SDS011;14163;-26.142;27.992;2022-12-16T08:56:13;10.50;;;9.60;;
26478;SDS011;14163;-26.142;27.992;2022-12-16T08:58:58;11.40;;;10.33;;
26478;SDS011;14163;-26.142;27.992;2022-12-16T09:01:44;10.00;;;9.07;;
26478;SDS011;14163;-26.142;27.992;2022-12-16T09:04:29;9.80;;;8.90;;
26478;SDS011;14163;-26.142;27.992;2022-12-16T09:07:22;9.60;;;8.70;;
26478;SDS011;14163;-26.142;27.992;2022-12-16T09:10:07;9.00;;;8.20;;
26478;SDS011;14163;-26.142;27.992;2022-12-16T09:12:53;9.30;;;8.60;;
26478;SDS011;14163;-26.142;27.992;2022-12-16T09:15:47;10.07;;;9.07;;
26478;SDS011;14163;-26.142;27.992;2022-12-16T09:18:33;9.00;;;8.30;;
26478;SDS011;14163;-26.142;27.992;2022-12-16T09:21:18;9.20;;;8.40;;
26478;SDS011;14163;-26.142;27.992;2022-12-16T09:24:06;9.93;;;9.13;;
26478;SDS011;14163;-26.142;27.992;2022-12-16T09:26:51;9.70;;;8.90;;
26478;SDS011;14163;-26.142;27.992;2022-12-16T09:29:36;10.60;;;9.50;;
26478;SDS011;14163;-26.142;27.992;2022-12-16T09:51:56;10.80;;;10.00;;
26478;SDS011;14163;-26.142;27.992;2022-12-16T09:54:45;10.10;;;9.30;;
26478;SDS011;14163;-26.142;27.992;2022-12-16T09:57:34;11.97;;;10.77;;
26478;SDS011;14163;-26.142;27.992;2022-12-16T14:08:15;11.23;;;10.23;;
26478;SDS011;14163;-26.142;27.992;2022-12-16T14:13:51;11.63;;;10.47;;
